Time;durP1;ratioP1;P1;durP2;ratioP2;P2;SDS_P1;SDS_P2;PMS_P1;PMS_P2;Temp;Humidity;BMP_temperature;BMP_pressure;BME280_temperature;BME280_humidity;BME280_pressure;Samples;Min_cycle;Max_cycle;Signal;HPM_P1;HPM_P2
2022/06/30 00:02:01;;;;;;;1999.90;999.90;;;19.30;99.90;;;;;;5111511;27;20051;-75
2022/06/30 00:04:27;;;;;;;1999.90;999.90;;;19.30;99.90;;;;;;5076917;28;20765;-75
2022/06/30 00:06:52;;;;;;;1999.90;999.90;;;19.30;99.90;;;;;;5086776;28;20043;-74
2022/06/30 00:09:19;;;;;;;1999.90;999.90;;;19.30;99.90;;;;;;5078359;28;20047;-75
2022/06/30 00:11:45;;;;;;;1999.90;999.90;;;19.30;99.90;;;;;;5062133;28;20539;-75
2022/06/30 00:14:10;;;;;;;1999.90;999.90;;;19.30;99.90;;;;;;5068417;28;20040;-75
2022/06/30 00:16:36;;;;;;;1999.90;999.90;;;19.30;99.90;;;;;;5076989;28;20039;-75
2022/06/30 00:19:02;;;;;;;1999.90;999.90;;;19.30;99.90;;;;;;5115346;27;20123;-75
2022/06/30 00:21:27;;;;;;;1999.90;999.90;;;19.20;99.90;;;;;;5058086;28;20037;-75
2022/06/30 00:23:53;;;;;;;1999.90;999.90;;;19.20;99.90;;;;;;5088340;28;20499;-75
2022/06/30 00:26:18;;;;;;;1999.90;999.90;;;19.20;99.90;;;;;;5072132;28;20046;-75
2022/06/30 00:28:44;;;;;;;1999.90;999.90;;;19.20;99.90;;;;;;5085889;28;20059;-75
2022/06/30 00:31:10;;;;;;;1999.90;999.90;;;19.20;99.90;;;;;;5085737;28;20051;-75
2022/06/30 00:33:35;;;;;;;1999.90;999.90;;;19.10;99.90;;;;;;5066329;28;20059;-75
2022/06/30 00:36:01;;;;;;;1999.90;999.90;;;19.20;99.90;;;;;;5094280;28;20396;-75
2022/06/30 00:38:27;;;;;;;1999.90;999.90;;;19.10;99.90;;;;;;5106284;28;20484;-75
2022/06/30 00:40:52;;;;;;;1999.90;999.90;;;19.10;99.90;;;;;;5071207;28;20559;-76
2022/06/30 00:43:18;;;;;;;1999.90;999.90;;;19.00;99.90;;;;;;5084400;28;20521;-75
2022/06/30 00:45:46;;;;;;;1999.90;999.90;;;19.00;99.90;;;;;;5099611;27;20037;-75
2022/06/30 00:48:13;;;;;;;1999.90;999.90;;;19.00;99.90;;;;;;5073536;28;20032;-75
2022/06/30 00:50:39;;;;;;;1999.90;999.90;;;18.90;99.90;;;;;;5082085;28;20117;-75
2022/06/30 00:53:06;;;;;;;1999.90;999.90;;;18.90;99.90;;;;;;5081618;28;20481;-75
2022/06/30 00:55:33;;;;;;;1999.90;999.90;;;18.90;99.90;;;;;;5073663;28;20397;-75
2022/06/30 00:58:07;;;;;;;1999.90;999.90;;;18.90;99.90;;;;;;5065691;28;20044;-75
2022/06/30 01:00:41;;;;;;;1999.90;999.90;;;18.80;99.90;;;;;;5059319;28;20036;-75
2022/06/30 01:03:09;;;;;;;1999.90;999.90;;;18.80;99.90;;;;;;5087457;28;20036;-75
2022/06/30 01:05:35;;;;;;;1999.90;999.90;;;18.80;99.90;;;;;;5090986;28;20577;-75
2022/06/30 01:08:03;;;;;;;1999.90;999.90;;;18.70;99.90;;;;;;5071970;28;20046;-75
2022/06/30 01:13:12;;;;;;;1999.90;999.90;;;18.70;99.90;;;;;;5069381;28;20418;-75
2022/06/30 01:15:38;;;;;;;1999.90;999.90;;;18.60;99.90;;;;;;5074902;28;20293;-74
2022/06/30 01:18:04;;;;;;;1999.90;999.90;;;18.60;99.90;;;;;;5054494;28;20089;-75
2022/06/30 01:20:32;;;;;;;1999.90;999.90;;;18.60;99.90;;;;;;5087606;28;20492;-75
2022/06/30 01:22:59;;;;;;;1999.90;999.90;;;18.50;99.90;;;;;;5070925;28;20456;-75
2022/06/30 01:25:25;;;;;;;1999.90;999.90;;;18.50;99.90;;;;;;5057012;28;20039;-75
2022/06/30 01:27:52;;;;;;;1999.90;999.90;;;18.50;99.90;;;;;;5092033;28;20079;-75
2022/06/30 01:30:18;;;;;;;1999.90;999.90;;;18.40;99.90;;;;;;5088694;28;20046;-75
2022/06/30 01:32:44;;;;;;;1999.90;999.90;;;18.30;99.90;;;;;;5075941;28;20044;-75
2022/06/30 01:35:10;;;;;;;1999.90;999.90;;;18.30;99.90;;;;;;5097115;28;20130;-74
2022/06/30 01:37:48;;;;;;;1999.90;999.90;;;18.30;99.90;;;;;;5067131;28;20086;-75
2022/06/30 01:40:14;;;;;;;1999.90;999.90;;;18.20;99.90;;;;;;5103151;28;20067;-75
2022/06/30 01:42:40;;;;;;;1999.90;999.90;;;18.20;99.90;;;;;;5066254;28;20045;-75
2022/06/30 01:45:06;;;;;;;1999.90;999.90;;;18.10;99.90;;;;;;5086067;28;20135;-75
2022/06/30 01:47:32;;;;;;;1999.90;999.90;;;18.00;99.90;;;;;;5086928;28;20127;-75
2022/06/30 01:49:58;;;;;;;1999.90;999.90;;;18.00;99.90;;;;;;5053998;28;20098;-74
2022/06/30 01:52:24;;;;;;;1999.90;999.90;;;18.00;99.90;;;;;;5054332;28;20517;-75
2022/06/30 01:54:49;;;;;;;1999.90;999.90;;;17.90;99.90;;;;;;5079936;28;20406;-75
2022/06/30 01:57:15;;;;;;;1999.90;999.90;;;17.90;99.90;;;;;;5068568;28;20079;-75
2022/06/30 01:59:40;;;;;;;1999.90;999.90;;;17.90;99.90;;;;;;5084600;28;20054;-75
2022/06/30 02:02:06;;;;;;;1999.90;999.90;;;17.80;99.90;;;;;;5069837;28;20680;-75
2022/06/30 02:04:46;;;;;;;1999.90;999.90;;;17.80;99.90;;;;;;5086033;28;20062;-75
2022/06/30 02:07:15;;;;;;;1999.90;999.90;;;17.80;99.90;;;;;;5065324;28;20044;-75
2022/06/30 02:09:42;;;;;;;1999.90;999.90;;;17.80;99.90;;;;;;5069719;28;20119;-75
2022/06/30 02:14:53;;;;;;;1999.90;999.90;;;17.70;99.90;;;;;;5072125;28;20480;-75
2022/06/30 02:17:19;;;;;;;1999.90;999.90;;;17.70;99.90;;;;;;5055834;28;20048;-75
2022/06/30 02:19:44;;;;;;;1999.90;999.90;;;17.70;99.90;;;;;;5076664;28;20047;-75
2022/06/30 02:22:10;;;;;;;1999.90;999.90;;;17.60;99.90;;;;;;5069644;28;20086;-75
2022/06/30 02:24:36;;;;;;;1999.90;999.90;;;17.60;99.90;;;;;;5053437;28;20074;-75
2022/06/30 02:27:01;;;;;;;1999.90;999.90;;;17.60;99.90;;;;;;5070461;28;20075;-75
2022/06/30 02:29:27;;;;;;;1999.90;999.90;;;17.50;99.90;;;;;;5069034;28;20036;-76
2022/06/30 02:31:53;;;;;;;1999.90;999.90;;;17.50;99.90;;;;;;5102608;28;20068;-75
2022/06/30 02:34:19;;;;;;;1999.90;999.90;;;17.40;99.90;;;;;;5085945;28;20036;-75
2022/06/30 02:36:44;;;;;;;1999.90;999.90;;;17.40;99.90;;;;;;5089556;28;20539;-75
2022/06/30 02:39:10;;;;;;;1999.90;999.90;;;17.40;99.90;;;;;;5055024;28;20047;-75
2022/06/30 02:41:36;;;;;;;1999.90;999.90;;;17.40;99.90;;;;;;5069625;28;20123;-75
2022/06/30 02:44:02;;;;;;;1999.90;999.90;;;17.30;99.90;;;;;;5104145;28;20062;-75
2022/06/30 02:46:28;;;;;;;1999.90;999.90;;;17.30;99.90;;;;;;5068065;28;20084;-76
2022/06/30 02:48:54;;;;;;;1999.90;999.90;;;17.20;99.90;;;;;;5075801;28;20047;-75
2022/06/30 02:51:20;;;;;;;1999.90;999.90;;;17.20;99.90;;;;;;5104002;28;20047;-75
2022/06/30 02:53:46;;;;;;;1999.90;999.90;;;17.10;99.90;;;;;;5053239;28;20040;-75
2022/06/30 02:56:12;;;;;;;1999.90;999.90;;;17.10;99.90;;;;;;5052149;28;20466;-76
2022/06/30 02:58:38;;;;;;;1999.90;999.90;;;17.10;99.90;;;;;;5086600;28;20105;-75
2022/06/30 03:01:04;;;;;;;1999.90;999.90;;;17.00;99.90;;;;;;5087615;28;20512;-75
2022/06/30 03:03:30;;;;;;;1999.90;999.90;;;17.00;99.90;;;;;;5103612;27;20040;-75
2022/06/30 03:05:55;;;;;;;1999.90;999.90;;;16.90;99.90;;;;;;5068632;28;20042;-75
2022/06/30 03:08:21;;;;;;;1999.90;999.90;;;16.90;99.90;;;;;;5070070;28;20115;-76
2022/06/30 03:10:47;;;;;;;1999.90;999.90;;;16.90;99.90;;;;;;5086303;28;20035;-76
2022/06/30 03:13:12;;;;;;;1999.90;999.90;;;16.90;99.90;;;;;;5070730;28;20498;-76
2022/06/30 03:15:38;;;;;;;1999.90;999.90;;;16.90;99.90;;;;;;5064569;28;20448;-75
2022/06/30 03:18:04;;;;;;;1999.90;999.90;;;16.90;99.90;;;;;;5112534;27;20055;-76
2022/06/30 03:20:30;;;;;;;1999.90;999.90;;;16.90;99.90;;;;;;5085781;28;20405;-76
2022/06/30 03:22:55;;;;;;;1999.90;999.90;;;16.90;99.90;;;;;;5069310;28;20044;-75
2022/06/30 03:25:21;;;;;;;1999.90;999.90;;;16.90;99.90;;;;;;5070482;28;20500;-76
2022/06/30 03:27:46;;;;;;;1999.90;999.90;;;16.90;99.90;;;;;;5070205;28;20050;-75
2022/06/30 03:30:12;;;;;;;1999.90;999.90;;;16.90;99.90;;;;;;5060692;28;20409;-76
2022/06/30 03:32:38;;;;;;;1999.90;999.90;;;16.90;99.90;;;;;;5053915;28;20067;-76
2022/06/30 03:35:05;;;;;;;1999.90;999.90;;;16.90;99.90;;;;;;5070643;28;20035;-76
2022/06/30 03:37:31;;;;;;;1999.90;999.90;;;16.90;99.90;;;;;;5066814;28;20032;-76
2022/06/30 03:39:57;;;;;;;1999.90;999.90;;;16.80;99.90;;;;;;5067650;28;20054;-76
2022/06/30 03:42:23;;;;;;;1999.90;999.90;;;16.80;99.90;;;;;;5065749;28;20048;-75
2022/06/30 03:44:49;;;;;;;1999.90;999.90;;;16.80;99.90;;;;;;5070726;28;20559;-76
2022/06/30 03:47:15;;;;;;;1999.90;999.90;;;16.80;99.90;;;;;;5099487;28;20074;-75
2022/06/30 03:49:41;;;;;;;1999.90;999.90;;;16.80;99.90;;;;;;5064307;28;20079;-75
2022/06/30 03:52:07;;;;;;;1999.90;999.90;;;16.90;99.90;;;;;;5087095;28;20083;-76
2022/06/30 03:54:33;;;;;;;1999.90;999.90;;;16.90;99.90;;;;;;5070497;28;20055;-76
2022/06/30 03:56:58;;;;;;;1999.90;999.90;;;16.90;99.90;;;;;;5083538;28;20581;-76
2022/06/30 03:59:24;;;;;;;1999.90;999.90;;;16.90;99.90;;;;;;5080611;28;20561;-76
2022/06/30 04:01:50;;;;;;;1999.90;999.90;;;16.90;99.90;;;;;;5053140;28;20058;-76
2022/06/30 04:04:15;;;;;;;1999.90;999.90;;;16.90;99.90;;;;;;5056361;28;20459;-76
2022/06/30 04:06:41;;;;;;;1999.90;999.90;;;16.90;99.90;;;;;;5065641;28;20043;-75
2022/06/30 04:09:07;;;;;;;1999.90;999.90;;;17.00;99.90;;;;;;5104256;28;20102;-75
2022/06/30 04:11:33;;;;;;;1999.90;999.90;;;17.00;99.90;;;;;;5050675;28;20040;-76
2022/06/30 04:13:58;;;;;;;1999.90;999.90;;;17.00;99.90;;;;;;5064061;28;20039;-76
2022/06/30 04:16:24;;;;;;;1999.90;999.90;;;17.00;99.90;;;;;;5053420;28;20047;-76
2022/06/30 04:18:50;;;;;;;1999.90;999.90;;;17.10;99.90;;;;;;5066099;28;20047;-76
2022/06/30 04:21:16;;;;;;;1999.90;999.90;;;17.10;99.90;;;;;;5053407;28;20044;-75
2022/06/30 04:23:43;;;;;;;1999.90;999.90;;;17.20;99.90;;;;;;5049077;28;20459;-75
2022/06/30 04:26:09;;;;;;;1999.90;999.90;;;17.20;99.90;;;;;;5049419;28;20036;-75
2022/06/30 04:28:35;;;;;;;1999.90;999.90;;;17.30;99.90;;;;;;5104211;28;20047;-75
2022/06/30 04:33:45;;;;;;;1999.90;999.90;;;17.50;99.90;;;;;;5072427;28;20072;-76
2022/06/30 04:36:11;;;;;;;1999.90;999.90;;;17.70;99.90;;;;;;5057383;28;20102;-76
2022/06/30 04:38:36;;;;;;;1999.90;999.90;;;17.90;99.90;;;;;;5070490;28;20059;-76
2022/06/30 04:41:47;;;;;;;1999.90;999.90;;;18.00;99.90;;;;;;5070214;28;20502;-75
2022/06/30 04:43:48;;;;;;;1999.90;999.90;;;18.10;99.90;;;;;;5059168;28;20044;-76
2022/06/30 04:46:13;;;;;;;1999.90;999.90;;;18.20;99.90;;;;;;5072691;28;20041;-75
2022/06/30 04:48:39;;;;;;;1999.90;999.90;;;18.20;99.90;;;;;;5053086;28;20086;-76
2022/06/30 04:51:05;;;;;;;1999.90;999.90;;;18.20;99.90;;;;;;5051405;28;20068;-76
2022/06/30 04:53:30;;;;;;;1999.90;999.90;;;18.20;99.90;;;;;;5077633;28;20041;-76
2022/06/30 04:55:56;;;;;;;1999.90;999.90;;;18.30;99.90;;;;;;5072138;28;20051;-76
2022/06/30 04:58:22;;;;;;;1999.90;999.90;;;18.30;99.90;;;;;;5054767;28;20055;-76
2022/06/30 05:00:47;;;;;;;1999.90;999.90;;;18.40;99.90;;;;;;5064581;28;20056;-75
2022/06/30 05:03:13;;;;;;;1999.90;999.90;;;18.50;99.90;;;;;;5045492;28;20439;-75
2022/06/30 05:05:39;;;;;;;1999.90;999.90;;;18.50;99.90;;;;;;5053172;28;20669;-75
2022/06/30 05:08:05;;;;;;;1999.90;999.90;;;18.60;99.90;;;;;;5052248;28;20067;-75
2022/06/30 05:10:30;;;;;;;1999.90;999.90;;;18.80;99.90;;;;;;5069525;28;20033;-75
2022/06/30 05:12:56;;;;;;;1999.90;999.90;;;18.90;99.90;;;;;;5052227;28;20093;-76
2022/06/30 05:15:22;;;;;;;1999.90;999.90;;;19.00;99.90;;;;;;5075224;28;20041;-76
2022/06/30 05:17:47;;;;;;;1999.90;999.90;;;19.30;99.90;;;;;;5055941;28;20441;-76
2022/06/30 05:20:13;;;;;;;1999.90;999.90;;;19.60;99.90;;;;;;5083210;28;20044;-75
2022/06/30 05:22:39;;;;;;;1999.90;999.90;;;19.70;99.90;;;;;;5057090;28;20051;-76
2022/06/30 05:27:49;;;;;;;1999.90;999.90;;;19.90;99.90;;;;;;5100778;28;20040;-76
2022/06/30 05:30:16;;;;;;;1999.90;999.90;;;19.90;99.90;;;;;;5056496;28;20036;-76
2022/06/30 05:32:42;;;;;;;1999.90;999.90;;;19.90;99.90;;;;;;5070639;28;20048;-76
2022/06/30 05:35:08;;;;;;;1999.90;999.90;;;19.90;99.90;;;;;;5092824;28;20040;-76
2022/06/30 05:37:34;;;;;;;1999.90;999.90;;;19.90;99.90;;;;;;5069204;28;20041;-76
2022/06/30 05:39:59;;;;;;;1999.90;999.90;;;19.90;99.90;;;;;;5063758;28;20056;-76
2022/06/30 05:42:26;;;;;;;1999.90;999.90;;;19.90;99.90;;;;;;5053510;28;20417;-75
2022/06/30 05:44:52;;;;;;;1999.90;999.90;;;20.00;99.90;;;;;;5068751;28;20132;-75
2022/06/30 05:47:17;;;;;;;1999.90;999.90;;;20.10;99.90;;;;;;5057850;28;20776;-76
2022/06/30 05:49:43;;;;;;;1999.90;999.90;;;20.20;99.90;;;;;;5074833;28;20049;-76
2022/06/30 05:52:09;;;;;;;1999.90;999.90;;;20.30;99.90;;;;;;5063568;28;20044;-75
2022/06/30 05:54:34;;;;;;;1999.90;999.90;;;20.40;99.90;;;;;;5088221;28;20155;-75
2022/06/30 05:57:00;;;;;;;1999.90;999.90;;;20.40;99.90;;;;;;5069424;28;20058;-75
2022/06/30 05:59:26;;;;;;;1999.90;999.90;;;20.50;99.90;;;;;;5049547;28;20048;-75
2022/06/30 06:01:51;;;;;;;1999.90;999.90;;;20.60;99.90;;;;;;5067894;28;20105;-76
2022/06/30 06:04:17;;;;;;;1999.90;999.90;;;20.60;99.90;;;;;;5049281;28;20040;-76
2022/06/30 06:06:43;;;;;;;1999.90;999.90;;;20.80;99.90;;;;;;5068361;28;20044;-75
2022/06/30 06:09:08;;;;;;;1999.90;999.90;;;21.00;99.90;;;;;;5050294;28;20054;-75
2022/06/30 06:11:36;;;;;;;1999.90;999.90;;;21.60;99.90;;;;;;5050432;28;20056;-76
2022/06/30 06:14:01;;;;;;;1999.90;999.90;;;22.40;99.90;;;;;;5065632;28;20044;-76
2022/06/30 06:16:27;;;;;;;1999.90;999.90;;;23.20;99.90;;;;;;5051017;28;20113;-76
2022/06/30 06:18:53;;;;;;;1999.90;999.90;;;24.00;99.90;;;;;;5054624;28;20075;-76
2022/06/30 06:21:19;;;;;;;1999.90;999.90;;;24.60;99.90;;;;;;5050302;28;20208;-76
2022/06/30 06:23:44;;;;;;;1999.90;999.90;;;25.20;99.90;;;;;;5048736;28;20456;-76
2022/06/30 06:26:10;;;;;;;1999.90;999.90;;;25.70;99.90;;;;;;5049754;28;20048;-76
2022/06/30 06:31:19;;;;;;;1999.90;999.90;;;26.60;99.00;;;;;;5068221;28;20052;-75
2022/06/30 06:33:47;;;;;;;1999.90;999.90;;;27.00;98.60;;;;;;5066704;28;20094;-75
2022/06/30 06:36:14;;;;;;;1999.90;999.90;;;27.40;97.00;;;;;;5098879;28;20085;-75
2022/06/30 06:38:39;;;;;;;1999.90;999.90;;;27.70;96.40;;;;;;5049416;28;20502;-74
2022/06/30 06:41:07;;;;;;;1999.90;999.90;;;27.80;96.10;;;;;;5047962;28;20061;-75
2022/06/30 06:43:36;;;;;;;1999.90;999.90;;;27.80;95.40;;;;;;5047205;28;20056;-75
2022/06/30 06:46:02;;;;;;;1999.90;999.90;;;27.90;94.90;;;;;;5045276;28;20044;-76
2022/06/30 06:48:28;;;;;;;1999.90;999.90;;;28.00;94.10;;;;;;5047152;28;20519;-76
2022/06/30 06:50:54;;;;;;;1999.90;999.90;;;28.00;94.10;;;;;;5030356;28;20566;-76
2022/06/30 06:53:20;;;;;;;1999.90;999.90;;;28.20;93.20;;;;;;5045760;28;20033;-76
2022/06/30 06:55:45;;;;;;;1999.90;999.90;;;28.50;92.90;;;;;;5044087;28;20032;-76
2022/06/30 06:58:12;;;;;;;1999.90;999.90;;;28.80;93.30;;;;;;5046543;28;20554;-76
2022/06/30 07:00:37;;;;;;;1999.90;999.90;;;29.10;92.90;;;;;;5027886;28;20032;-76
2022/06/30 07:03:03;;;;;;;1999.90;999.90;;;29.20;92.30;;;;;;5046796;28;20119;-76
2022/06/30 07:05:29;;;;;;;1999.90;999.90;;;29.00;90.10;;;;;;5055346;28;20044;-76
2022/06/30 07:07:59;;;;;;;1999.90;999.90;;;28.90;89.80;;;;;;5047676;28;20041;-76
2022/06/30 07:10:25;;;;;;;1999.90;999.90;;;28.90;90.20;;;;;;5047340;28;20045;-76
2022/06/30 07:12:51;;;;;;;1999.90;999.90;;;28.90;90.80;;;;;;5030641;28;20037;-75
2022/06/30 07:15:17;;;;;;;1999.90;999.90;;;28.90;89.80;;;;;;5046601;28;20044;-76
2022/06/30 07:17:43;;;;;;;1999.90;999.90;;;28.80;88.90;;;;;;5047368;28;20129;-76
2022/06/30 07:20:09;;;;;;;1999.90;999.90;;;28.90;88.70;;;;;;5047183;28;20452;-76
2022/06/30 07:22:35;;;;;;;1999.90;999.90;;;28.80;89.00;;;;;;5041903;28;20042;-76
2022/06/30 07:25:01;;;;;;;1999.90;999.90;;;28.80;88.90;;;;;;5048565;28;20438;-76
2022/06/30 07:27:27;;;;;;;1999.90;999.90;;;28.90;90.50;;;;;;5025866;28;20044;-76
2022/06/30 07:29:53;;;;;;;1999.90;999.90;;;29.10;88.20;;;;;;5046909;28;20045;-76
2022/06/30 07:32:18;;;;;;;1999.90;999.90;;;29.20;89.60;;;;;;5038900;28;20049;-76
2022/06/30 07:34:44;;;;;;;1999.90;999.90;;;29.30;89.70;;;;;;5030395;28;20044;-76
2022/06/30 07:37:10;;;;;;;1999.90;999.90;;;29.40;90.00;;;;;;5024423;28;20037;-76
2022/06/30 07:39:35;;;;;;;1999.90;999.90;;;29.50;87.90;;;;;;5035338;28;20068;-76
2022/06/30 07:42:01;;;;;;;1999.90;999.90;;;29.60;85.80;;;;;;5065560;28;20044;-76
2022/06/30 07:44:27;;;;;;;1999.90;999.90;;;29.70;88.50;;;;;;5060197;28;20043;-76
2022/06/30 07:46:53;;;;;;;1999.90;999.90;;;29.80;86.70;;;;;;5067090;28;20036;-76
2022/06/30 07:49:18;;;;;;;1999.90;999.90;;;29.80;87.60;;;;;;5050257;28;20127;-76
2022/06/30 07:51:44;;;;;;;1999.90;999.90;;;29.90;86.50;;;;;;5063113;28;20114;-76
2022/06/30 07:54:10;;;;;;;1999.90;999.90;;;30.00;85.00;;;;;;5049933;28;20044;-75
2022/06/30 07:56:36;;;;;;;1999.90;999.90;;;30.00;84.40;;;;;;5054106;28;20036;-76
2022/06/30 07:59:01;;;;;;;1999.90;999.90;;;29.80;84.50;;;;;;5066896;28;20150;-76
2022/06/30 08:01:27;;;;;;;1999.90;999.90;;;29.70;84.80;;;;;;5065079;28;20051;-75
2022/06/30 08:03:52;;;;;;;1999.90;999.90;;;29.60;87.00;;;;;;5052386;28;20037;-76
2022/06/30 08:06:18;;;;;;;1999.90;999.90;;;29.60;85.20;;;;;;5063600;28;20410;-75
2022/06/30 08:08:44;;;;;;;1999.90;999.90;;;29.60;85.40;;;;;;5047389;28;20481;-76
2022/06/30 08:11:10;;;;;;;1999.90;999.90;;;29.50;85.80;;;;;;5069303;28;20075;-75
2022/06/30 08:13:36;;;;;;;1999.90;999.90;;;29.40;85.80;;;;;;5087793;28;20413;-76
2022/06/30 08:16:03;;;;;;;1999.90;999.90;;;29.60;87.60;;;;;;5069888;28;20055;-76
2022/06/30 08:18:29;;;;;;;1999.90;999.90;;;29.70;84.80;;;;;;5073197;28;20135;-75
2022/06/30 08:20:55;;;;;;;1999.90;999.90;;;29.70;86.60;;;;;;5065371;28;20166;-77
2022/06/30 08:23:21;;;;;;;1999.90;999.90;;;30.00;86.00;;;;;;5053967;28;20090;-76
2022/06/30 08:25:46;;;;;;;1999.90;999.90;;;30.10;86.50;;;;;;5053549;28;20563;-76
2022/06/30 08:28:12;;;;;;;1999.90;999.90;;;30.30;86.30;;;;;;5069883;28;20036;-76
2022/06/30 08:30:38;;;;;;;1999.90;999.90;;;30.30;86.00;;;;;;5071204;28;20505;-76
2022/06/30 08:33:04;;;;;;;1999.90;999.90;;;30.30;85.90;;;;;;5086601;28;20762;-76
2022/06/30 08:35:29;;;;;;;1999.90;999.90;;;30.30;85.10;;;;;;5068745;28;20044;-77
2022/06/30 08:37:55;;;;;;;1999.90;999.90;;;30.30;84.40;;;;;;5070061;28;20055;-76
2022/06/30 08:43:09;;;;;;;1999.90;999.90;;;30.50;86.30;;;;;;5065850;28;20101;-76
2022/06/30 08:45:35;;;;;;;1999.90;999.90;;;30.60;83.20;;;;;;5069978;28;20052;-76
2022/06/30 08:48:01;;;;;;;1999.90;999.90;;;30.70;80.10;;;;;;5053782;28;20494;-76
2022/06/30 08:50:26;;;;;;;1999.90;999.90;;;30.90;83.40;;;;;;5052574;28;20076;-76
2022/06/30 08:52:55;;;;;;;1999.90;999.90;;;31.10;84.30;;;;;;5070323;28;20147;-76
2022/06/30 08:55:26;;;;;;;1999.90;999.90;;;31.20;80.70;;;;;;5052628;28;20102;-76
2022/06/30 08:57:57;;;;;;;1999.90;999.90;;;31.40;77.10;;;;;;5068658;28;20052;-76
2022/06/30 09:00:23;;;;;;;1999.90;999.90;;;31.50;81.40;;;;;;5070210;28;20084;-76
2022/06/30 09:02:48;;;;;;;1999.90;999.90;;;31.60;79.40;;;;;;5063672;28;20080;-77
2022/06/30 09:05:15;;;;;;;1999.90;999.90;;;31.70;80.80;;;;;;5045761;28;20090;-76
2022/06/30 09:07:41;;;;;;;1999.90;999.90;;;31.80;78.80;;;;;;5053676;28;20781;-76
2022/06/30 09:10:07;;;;;;;1999.90;999.90;;;31.90;79.90;;;;;;5053614;28;20044;-76
2022/06/30 09:12:32;;;;;;;1999.90;999.90;;;32.00;77.00;;;;;;5044430;28;20512;-76
2022/06/30 09:14:59;;;;;;;1999.90;999.90;;;32.20;79.20;;;;;;5069497;28;20044;-77
2022/06/30 09:17:27;;;;;;;1999.90;999.90;;;32.30;77.90;;;;;;5063820;28;20078;-77
2022/06/30 09:20:04;;;;;;;1999.90;999.90;;;32.20;74.70;;;;;;5069518;28;20059;-77
2022/06/30 09:22:38;;;;;;;1999.90;999.90;;;32.10;75.00;;;;;;5069282;28;20048;-77
2022/06/30 09:25:15;;;;;;;1999.90;999.90;;;32.10;74.60;;;;;;5052500;28;20063;-77
2022/06/30 09:27:43;;;;;;;1999.90;999.90;;;32.10;75.50;;;;;;5067604;28;20036;-77
2022/06/30 09:30:11;;;;;;;1999.90;999.90;;;32.20;72.60;;;;;;5069611;28;20462;-76
2022/06/30 09:32:44;;;;;;;1999.90;999.90;;;32.30;74.80;;;;;;5052670;28;20040;-77
2022/06/30 09:35:10;;;;;;;1999.90;999.90;;;32.10;77.30;;;;;;5060246;28;20044;-77
2022/06/30 09:37:37;;;;;;;1999.90;999.90;;;32.20;75.90;;;;;;5052058;28;20044;-77
2022/06/30 09:40:04;;;;;;;1999.90;999.90;;;32.30;74.50;;;;;;5045131;28;20049;-77
2022/06/30 09:42:45;;;;;;;1999.90;999.90;;;32.30;74.50;;;;;;5051855;28;20076;-77
2022/06/30 09:45:31;;;;;;;1999.90;999.90;;;32.30;73.70;;;;;;5069126;28;20118;-77
2022/06/30 09:47:57;;;;;;;1999.90;999.90;;;32.10;73.80;;;;;;5049915;28;20074;-76
2022/06/30 09:50:23;;;;;;;1999.90;999.90;;;32.00;72.90;;;;;;5068700;28;20044;-77
2022/06/30 09:53:13;;;;;;;1999.90;999.90;;;31.70;72.30;;;;;;5068759;28;20051;-77
2022/06/30 09:55:45;;;;;;;1999.90;999.90;;;31.70;73.90;;;;;;5068698;28;20071;-77
2022/06/30 09:58:35;;;;;;;1999.90;999.90;;;31.80;74.30;;;;;;5059014;28;20045;-76
2022/06/30 10:01:02;;;;;;;1999.90;999.90;;;31.60;73.90;;;;;;5049245;28;20056;-76
2022/06/30 10:03:28;;;;;;;1999.90;999.90;;;31.50;76.10;;;;;;5040517;28;20098;-77
2022/06/30 10:06:17;;;;;;;1999.90;999.90;;;31.50;73.50;;;;;;5066010;28;20115;-76
2022/06/30 10:08:43;;;;;;;1999.90;999.90;;;31.60;74.20;;;;;;5063649;28;20071;-77
2022/06/30 10:11:09;;;;;;;1999.90;999.90;;;31.70;74.20;;;;;;5049269;28;20036;-76
2022/06/30 10:13:37;;;;;;;1999.90;999.90;;;31.60;71.80;;;;;;5051957;28;20040;-76
2022/06/30 10:16:05;;;;;;;1999.90;999.90;;;31.50;69.90;;;;;;5052050;28;20113;-76
2022/06/30 10:18:33;;;;;;;1999.90;999.90;;;31.60;72.40;;;;;;5068114;28;20557;-77
2022/06/30 10:20:58;;;;;;;1999.90;999.90;;;31.80;73.70;;;;;;5049627;28;20162;-77
2022/06/30 10:23:24;;;;;;;1999.90;999.90;;;31.80;73.00;;;;;;5068179;28;20476;-77
2022/06/30 10:25:54;;;;;;;1999.90;999.90;;;31.70;70.70;;;;;;5048086;28;20403;-77
2022/06/30 10:28:22;;;;;;;1999.90;999.90;;;31.50;71.40;;;;;;5067644;28;20123;-77
2022/06/30 10:31:14;;;;;;;1999.90;999.90;;;31.30;73.00;;;;;;5051693;28;20090;-76
2022/06/30 10:33:48;;;;;;;;;;;31.40;72.60;;;;;;5044351;28;20041;-76
2022/06/30 10:36:25;;;;;;;1999.90;999.90;;;31.50;74.40;;;;;;5096892;28;19920;-76
2022/06/30 10:39:06;;;;;;;1999.90;999.90;;;31.70;71.20;;;;;;5067476;28;20040;-76
2022/06/30 10:41:42;;;;;;;1999.90;999.90;;;31.70;71.00;;;;;;5050563;28;20106;-76
2022/06/30 10:44:08;;;;;;;1999.90;999.90;;;31.80;68.40;;;;;;5051173;28;20040;-76
2022/06/30 10:46:56;;;;;;;1999.90;999.90;;;32.10;69.10;;;;;;5079313;28;20109;-76
2022/06/30 10:49:26;;;;;;;1999.90;999.90;;;32.30;69.90;;;;;;5050712;28;20120;-76
2022/06/30 10:51:56;;;;;;;1999.90;999.90;;;32.20;70.80;;;;;;5053879;28;20055;-75
2022/06/30 10:54:30;;;;;;;1999.90;999.90;;;32.20;71.60;;;;;;5068077;28;20097;-76
2022/06/30 10:56:57;;;;;;;1999.90;999.90;;;32.00;69.60;;;;;;5067874;28;20032;-76
2022/06/30 10:59:31;;;;;;;1999.90;999.90;;;31.70;71.00;;;;;;5065338;28;20044;-77
2022/06/30 11:02:23;;;;;;;1999.90;999.90;;;31.80;73.40;;;;;;5050800;28;20417;-76
2022/06/30 11:04:51;;;;;;;1999.90;999.90;;;31.90;71.40;;;;;;5067958;28;20068;-76
2022/06/30 11:07:24;;;;;;;1999.90;999.90;;;32.10;72.40;;;;;;5064313;28;20033;-76
2022/06/30 11:09:57;;;;;;;1999.90;999.90;;;32.20;71.80;;;;;;5050942;28;20052;-76
2022/06/30 11:12:48;;;;;;;1999.90;999.90;;;32.10;70.60;;;;;;5059328;28;20055;-76
2022/06/30 11:15:14;;;;;;;1999.90;999.90;;;31.90;68.50;;;;;;5067607;28;20040;-76
2022/06/30 11:17:40;;;;;;;1999.90;999.90;;;31.80;67.60;;;;;;5045889;28;20095;-76
2022/06/30 11:20:10;;;;;;;1999.90;999.90;;;31.80;67.70;;;;;;5050596;28;20530;-76
2022/06/30 11:22:36;;;;;;;1999.90;999.90;;;31.70;70.30;;;;;;5055867;28;20055;-77
2022/06/30 11:25:11;;;;;;;1999.90;999.90;;;31.60;67.40;;;;;;5067527;28;20040;-76
2022/06/30 11:27:38;;;;;;;1999.90;999.90;;;31.60;70.50;;;;;;5050620;28;20036;-75
2022/06/30 11:30:10;;;;;;;1999.90;999.90;;;31.40;70.10;;;;;;5050620;28;20029;-76
2022/06/30 11:32:36;;;;;;;;;;;31.30;72.60;;;;;;5049915;28;20082;-75
2022/06/30 11:35:02;;;;;;;1999.90;999.90;;;31.50;70.60;;;;;;5080326;28;20389;-76
2022/06/30 11:37:30;;;;;;;1999.90;999.90;;;31.70;70.40;;;;;;5058448;28;20051;-75
2022/06/30 11:40:03;;;;;;;1999.90;999.90;;;31.70;70.80;;;;;;5061983;28;20064;-75
2022/06/30 11:42:29;;;;;;;1999.90;999.90;;;31.70;68.80;;;;;;5080119;28;20611;-76
2022/06/30 11:44:54;;;;;;;1999.90;999.90;;;31.60;68.80;;;;;;5097999;28;20322;-75
2022/06/30 11:47:22;;;;;;;1999.90;999.90;;;31.50;68.70;;;;;;5063769;28;20044;-76
2022/06/30 11:50:18;;;;;;;1999.90;999.90;;;31.30;67.70;;;;;;5061635;28;20108;-76
2022/06/30 11:52:44;;;;;;;1999.90;999.90;;;31.20;66.10;;;;;;5046287;28;20510;-75
2022/06/30 11:55:12;;;;;;;1999.90;999.90;;;31.20;66.90;;;;;;5029228;28;20036;-76
2022/06/30 11:57:43;;;;;;;1999.90;999.90;;;31.20;66.60;;;;;;5064245;28;20123;-75
2022/06/30 12:00:13;;;;;;;1999.90;999.90;;;31.10;65.40;;;;;;5057246;28;20041;-76
2022/06/30 12:02:40;;;;;;;1999.90;999.90;;;31.00;65.40;;;;;;5042217;28;20033;-76
2022/06/30 12:05:11;;;;;;;1999.90;999.90;;;31.10;66.00;;;;;;5043263;28;20076;-76
2022/06/30 12:07:38;;;;;;;1999.90;999.90;;;31.10;67.00;;;;;;5045622;28;20041;-76
2022/06/30 12:10:06;;;;;;;1999.90;999.90;;;31.10;65.60;;;;;;5064077;28;20055;-76
2022/06/30 12:12:33;;;;;;;1999.90;999.90;;;30.90;65.30;;;;;;5080087;28;20085;-75
2022/06/30 12:15:00;;;;;;;1999.90;999.90;;;30.90;64.80;;;;;;5075706;28;20437;-76
2022/06/30 12:17:38;;;;;;;1999.90;999.90;;;30.90;66.10;;;;;;5063044;28;20098;-76
2022/06/30 12:20:06;;;;;;;1999.90;999.90;;;31.00;66.70;;;;;;5058675;28;20041;-76